createdAt,value
2022-07-27T00:00:44.329Z,2.20
2022-07-27T00:01:50.554Z,3.90
2022-07-27T00:02:51.177Z,1.90
2022-07-27T00:03:46.326Z,1.40
2022-07-27T00:04:44.398Z,1.50
2022-07-27T00:05:44.257Z,2.00
2022-07-27T00:06:44.252Z,3.20
2022-07-27T00:07:44.242Z,2.30
2022-07-27T00:08:44.234Z,2.70
2022-07-27T00:09:44.248Z,1.60
2022-07-27T00:10:44.224Z,2.30
2022-07-27T00:11:44.206Z,3.70
2022-07-27T00:12:44.204Z,1.70
2022-07-27T00:13:44.191Z,2.20
2022-07-27T00:14:44.216Z,2.80
2022-07-27T00:15:44.195Z,1.40
2022-07-27T00:16:44.197Z,1.60
2022-07-27T00:17:44.165Z,3.50
2022-07-27T00:18:44.150Z,1.40
2022-07-27T00:19:44.170Z,1.60
2022-07-27T00:20:44.132Z,2.90
2022-07-27T00:21:46.493Z,3.40
2022-07-27T00:22:44.118Z,3.10
2022-07-27T00:23:44.119Z,2.10
2022-07-27T00:24:44.106Z,2.50
2022-07-27T00:25:44.121Z,2.20
2022-07-27T00:26:44.085Z,2.80
2022-07-27T00:27:44.083Z,1.70
2022-07-27T00:28:44.074Z,2.50
2022-07-27T00:29:44.065Z,3.20
2022-07-27T00:30:44.080Z,2.20
2022-07-27T00:31:44.100Z,2.10
2022-07-27T00:32:44.043Z,3.20
2022-07-27T00:33:44.028Z,2.00
2022-07-27T00:34:44.027Z,3.20
2022-07-27T00:35:44.056Z,1.80
2022-07-27T00:36:44.003Z,2.20
2022-07-27T00:37:44.002Z,3.00
2022-07-27T00:38:43.987Z,1.80
2022-07-27T00:39:43.986Z,2.30
2022-07-27T00:40:44.004Z,2.60
2022-07-27T00:41:43.968Z,2.00
2022-07-27T00:42:43.959Z,1.90
2022-07-27T00:43:43.951Z,2.60
2022-07-27T00:44:43.949Z,2.60
2022-07-27T00:45:43.957Z,2.20
2022-07-27T00:46:43.968Z,4.00
2022-07-27T00:47:43.925Z,3.30
2022-07-27T00:48:43.966Z,3.80
2022-07-27T00:49:43.907Z,2.90
2022-07-27T00:50:43.920Z,2.20
2022-07-27T00:51:43.888Z,1.70
2022-07-27T00:52:43.877Z,2.90
2022-07-27T00:53:43.870Z,2.40
2022-07-27T00:54:43.880Z,3.20
2022-07-27T00:55:43.883Z,3.00
2022-07-27T00:56:43.848Z,3.60
2022-07-27T00:57:58.162Z,2.80
2022-07-27T00:58:44.833Z,3.30
2022-07-27T00:59:43.825Z,2.80
2022-07-27T01:00:43.892Z,4.80
2022-07-27T01:01:43.925Z,3.10
2022-07-27T01:02:45.719Z,3.20
2022-07-27T01:03:43.799Z,2.40
2022-07-27T01:04:43.791Z,2.60
2022-07-27T01:05:44.219Z,1.90
2022-07-27T01:06:43.788Z,2.90
2022-07-27T01:07:43.765Z,2.40
2022-07-27T01:08:43.760Z,1.70
2022-07-27T01:09:43.750Z,2.90
2022-07-27T01:10:43.824Z,3.10
2022-07-27T01:11:43.823Z,1.90
2022-07-27T01:12:43.727Z,2.50
2022-07-27T01:13:43.718Z,2.50
2022-07-27T01:14:43.712Z,2.10
2022-07-27T01:15:43.850Z,3.10
2022-07-27T01:16:43.695Z,1.80
2022-07-27T01:17:43.684Z,3.40
2022-07-27T01:18:43.679Z,1.70
2022-07-27T01:19:43.666Z,2.10
2022-07-27T01:20:43.694Z,3.30
2022-07-27T01:21:43.654Z,1.30
2022-07-27T01:22:43.648Z,2.70
2022-07-27T01:23:43.642Z,1.60
2022-07-27T01:24:43.637Z,3.10
2022-07-27T01:25:43.650Z,4.10
2022-07-27T01:26:43.617Z,2.00
2022-07-27T01:27:43.615Z,3.40
2022-07-27T01:28:43.610Z,3.50
2022-07-27T01:29:43.603Z,3.10
2022-07-27T01:30:43.619Z,2.40
2022-07-27T01:31:43.643Z,4.10
2022-07-27T01:32:43.604Z,2.20
2022-07-27T01:33:43.574Z,3.10
2022-07-27T01:34:43.594Z,1.50
2022-07-27T01:35:43.557Z,2.60
2022-07-27T01:36:43.552Z,2.10
2022-07-27T01:37:47.601Z,4.20
2022-07-27T01:38:43.536Z,3.50
2022-07-27T01:39:44.560Z,3.30
2022-07-27T01:40:43.518Z,3.10
2022-07-27T01:41:43.513Z,1.80
2022-07-27T01:42:43.506Z,3.00
2022-07-27T01:43:43.496Z,2.00
2022-07-27T01:44:43.514Z,3.70
2022-07-27T01:45:43.481Z,2.50
2022-07-27T01:46:43.490Z,2.70
2022-07-27T01:47:43.466Z,4.20
2022-07-27T01:48:43.528Z,4.60
2022-07-27T01:49:43.470Z,2.00
2022-07-27T01:50:43.709Z,4.20
2022-07-27T01:51:43.431Z,3.60
2022-07-27T01:52:43.424Z,3.70
2022-07-27T01:53:43.415Z,2.40
2022-07-27T01:54:43.406Z,1.90
2022-07-27T01:55:43.430Z,2.40
2022-07-27T01:56:43.386Z,4.60
2022-07-27T01:57:43.382Z,2.40
2022-07-27T01:58:43.372Z,4.00
2022-07-27T01:59:43.398Z,2.60
2022-07-27T02:00:43.358Z,3.10
2022-07-27T02:01:43.472Z,2.60
2022-07-27T02:02:43.347Z,4.70
2022-07-27T02:03:43.337Z,4.60
2022-07-27T02:04:43.325Z,4.40
2022-07-27T02:05:43.525Z,3.60
2022-07-27T02:06:43.311Z,4.90
2022-07-27T02:07:43.298Z,4.40
2022-07-27T02:08:43.295Z,2.60
2022-07-27T02:09:43.284Z,2.20
2022-07-27T02:10:43.300Z,3.30
2022-07-27T02:11:43.271Z,2.80
2022-07-27T02:12:43.265Z,3.20
2022-07-27T02:13:43.238Z,5.10
2022-07-27T02:14:44.245Z,4.60
2022-07-27T02:15:44.508Z,2.60
2022-07-27T02:16:43.344Z,2.70
2022-07-27T02:17:43.223Z,1.60
2022-07-27T02:18:43.215Z,1.70
2022-07-27T02:19:43.210Z,3.50
2022-07-27T02:20:43.226Z,3.00
2022-07-27T02:21:43.187Z,2.60
2022-07-27T02:22:43.183Z,3.00
2022-07-27T02:23:43.176Z,2.90
2022-07-27T02:24:43.171Z,2.90
2022-07-27T02:25:43.190Z,2.10
2022-07-27T02:26:43.146Z,5.90
2022-07-27T02:27:43.147Z,3.30
2022-07-27T02:28:43.136Z,1.70
2022-07-27T02:29:43.133Z,1.70
2022-07-27T02:30:43.150Z,2.90
2022-07-27T02:31:43.116Z,3.30
2022-07-27T02:32:44.395Z,1.60
2022-07-27T02:33:43.102Z,5.30
2022-07-27T02:34:43.086Z,3.00
2022-07-27T02:35:44.111Z,1.50
2022-07-27T02:36:43.078Z,3.10
2022-07-27T02:37:43.066Z,2.50
2022-07-27T02:38:43.058Z,4.10
2022-07-27T02:39:43.053Z,2.40
2022-07-27T02:40:43.069Z,5.10
2022-07-27T02:41:43.032Z,3.00
2022-07-27T02:42:43.027Z,3.00
2022-07-27T02:43:43.022Z,2.00
2022-07-27T02:44:43.022Z,3.90
2022-07-27T02:45:43.029Z,3.60
2022-07-27T02:46:43.037Z,3.90
2022-07-27T02:47:42.992Z,2.40
2022-07-27T02:48:43.028Z,4.20
2022-07-27T02:49:42.975Z,3.40
2022-07-27T02:50:42.988Z,1.80
2022-07-27T02:51:42.956Z,3.60
2022-07-27T02:52:42.949Z,2.80
2022-07-27T02:53:42.939Z,3.30
2022-07-27T02:54:42.934Z,3.70
2022-07-27T02:55:42.948Z,5.20
2022-07-27T02:56:43.009Z,5.20
2022-07-27T02:57:42.913Z,5.70
2022-07-27T02:58:42.901Z,4.70
2022-07-27T02:59:42.898Z,4.50
2022-07-27T03:00:42.916Z,4.30
2022-07-27T03:01:42.919Z,4.80
2022-07-27T03:02:42.871Z,4.40
2022-07-27T03:03:42.866Z,3.40
2022-07-27T03:04:42.875Z,4.90
2022-07-27T03:05:42.880Z,4.00
2022-07-27T03:06:42.846Z,5.30
2022-07-27T03:07:42.833Z,3.30
2022-07-27T03:08:42.821Z,5.00
2022-07-27T03:09:42.813Z,4.70
2022-07-27T03:10:48.778Z,5.80
2022-07-27T03:11:43.803Z,5.20
2022-07-27T03:12:42.781Z,7.30
2022-07-27T03:13:42.785Z,8.00
2022-07-27T03:14:42.797Z,5.30
2022-07-27T03:15:42.820Z,3.50
2022-07-27T03:16:42.757Z,3.70
2022-07-27T03:17:42.753Z,4.60
2022-07-27T03:18:42.743Z,6.20
2022-07-27T03:19:42.734Z,2.70
2022-07-27T03:20:42.760Z,3.10
2022-07-27T03:21:42.723Z,4.00
2022-07-27T03:22:42.710Z,2.30
2022-07-27T03:23:42.701Z,5.50
2022-07-27T03:24:42.716Z,5.30
2022-07-27T03:25:42.710Z,4.60
2022-07-27T03:26:42.678Z,4.50
2022-07-27T03:27:42.667Z,5.80
2022-07-27T03:28:42.666Z,4.50
2022-07-27T03:29:42.655Z,4.90
2022-07-27T03:30:42.710Z,3.80
2022-07-27T03:31:42.635Z,3.70
2022-07-27T03:32:42.627Z,4.80
2022-07-27T03:33:42.621Z,6.10
2022-07-27T03:34:42.616Z,5.80
2022-07-27T03:35:42.630Z,4.60
2022-07-27T03:36:42.608Z,4.30
2022-07-27T03:37:42.588Z,4.50
2022-07-27T03:38:42.578Z,4.90
2022-07-27T03:39:42.579Z,6.30
2022-07-27T03:40:42.591Z,3.60
2022-07-27T03:41:42.558Z,5.70
2022-07-27T03:42:42.547Z,5.50
2022-07-27T03:43:42.553Z,3.70
2022-07-27T03:44:42.538Z,3.50
2022-07-27T03:45:42.598Z,2.80
2022-07-27T03:46:42.520Z,4.40
2022-07-27T03:47:42.520Z,4.20
2022-07-27T03:48:42.555Z,2.80
2022-07-27T03:49:42.500Z,5.50
2022-07-27T03:50:42.514Z,6.30
2022-07-27T03:51:42.484Z,5.70
2022-07-27T03:52:45.712Z,5.70
2022-07-27T03:53:42.464Z,4.70
2022-07-27T03:54:42.457Z,4.30
2022-07-27T03:55:42.470Z,5.50
2022-07-27T03:56:42.442Z,5.20
2022-07-27T03:57:42.437Z,2.60
2022-07-27T03:58:42.421Z,6.50
2022-07-27T03:59:42.418Z,4.60
2022-07-27T04:00:42.435Z,5.40
2022-07-27T04:01:42.520Z,4.10
2022-07-27T04:02:42.474Z,4.90
2022-07-27T04:03:44.338Z,3.20
2022-07-27T04:04:43.381Z,5.80
2022-07-27T04:05:42.403Z,5.20
2022-07-27T04:06:42.363Z,4.20
2022-07-27T04:07:42.351Z,4.80
2022-07-27T04:08:42.351Z,8.40
2022-07-27T04:09:42.357Z,5.90
2022-07-27T04:10:42.360Z,3.10
2022-07-27T04:11:43.625Z,6.00
2022-07-27T04:12:43.313Z,3.40
2022-07-27T04:13:42.309Z,5.50
2022-07-27T04:14:42.305Z,4.50
2022-07-27T04:15:42.316Z,2.70
2022-07-27T04:16:42.348Z,6.80
2022-07-27T04:17:54.662Z,9.50
2022-07-27T04:18:43.270Z,13.10
2022-07-27T04:19:42.258Z,11.10
2022-07-27T04:20:42.254Z,10.10
2022-07-27T04:21:42.271Z,8.30
2022-07-27T04:22:42.232Z,5.00
2022-07-27T04:23:42.228Z,4.90
2022-07-27T04:24:42.215Z,7.20
2022-07-27T04:25:42.213Z,5.50
2022-07-27T04:26:42.226Z,9.30
2022-07-27T04:27:42.203Z,8.50
2022-07-27T04:28:42.189Z,6.50
2022-07-27T04:29:42.181Z,3.60
2022-07-27T04:30:42.217Z,5.60
2022-07-27T04:31:43.194Z,5.20
2022-07-27T04:32:42.158Z,5.50
2022-07-27T04:33:42.155Z,6.50
2022-07-27T04:34:42.137Z,2.50
2022-07-27T04:35:42.136Z,3.00
2022-07-27T04:36:42.146Z,5.40
2022-07-27T04:37:57.877Z,3.20
2022-07-27T04:38:43.107Z,4.90
2022-07-27T04:39:42.098Z,7.10
2022-07-27T04:40:42.091Z,14.20
2022-07-27T04:41:42.106Z,6.00
2022-07-27T04:42:49.488Z,5.90
2022-07-27T04:43:43.073Z,5.50
2022-07-27T04:44:42.061Z,5.00
2022-07-27T04:45:42.111Z,6.40
2022-07-27T04:46:42.074Z,5.40
2022-07-27T04:47:42.034Z,4.20
2022-07-27T04:48:42.109Z,5.00
2022-07-27T04:49:43.019Z,5.40
2022-07-27T04:50:42.021Z,6.40
2022-07-27T04:51:42.031Z,8.60
2022-07-27T04:52:41.996Z,6.00
2022-07-27T04:53:53.827Z,6.60
2022-07-27T04:54:42.974Z,5.70
2022-07-27T04:55:41.966Z,7.10
2022-07-27T04:56:41.987Z,5.70
2022-07-27T04:57:41.966Z,5.70
2022-07-27T04:58:41.945Z,5.60
2022-07-27T04:59:41.934Z,3.90
2022-07-27T05:00:41.936Z,4.20
2022-07-27T05:01:41.997Z,5.50
2022-07-27T05:02:41.916Z,9.60
2022-07-27T05:03:41.940Z,10.70
2022-07-27T05:04:41.904Z,7.30
2022-07-27T05:05:49.774Z,8.40
2022-07-27T05:06:42.906Z,6.30
2022-07-27T05:07:41.872Z,7.50
2022-07-27T05:08:41.869Z,5.90
2022-07-27T05:09:41.859Z,5.40
2022-07-27T05:10:41.856Z,5.40
2022-07-27T05:11:41.873Z,9.20
2022-07-27T05:12:42.837Z,9.80
2022-07-27T05:13:41.828Z,6.20
2022-07-27T05:14:41.824Z,9.40
2022-07-27T05:15:54.967Z,6.60
2022-07-27T05:16:42.897Z,9.20
2022-07-27T05:17:41.807Z,8.60
2022-07-27T05:18:41.796Z,8.40
2022-07-27T05:19:41.782Z,4.10
2022-07-27T05:20:41.779Z,7.90
2022-07-27T05:21:41.804Z,5.00
2022-07-27T05:22:41.814Z,6.70
2022-07-27T05:23:41.750Z,4.90
2022-07-27T05:24:41.809Z,4.90
2022-07-27T05:25:41.735Z,6.50
2022-07-27T05:26:41.729Z,4.30
2022-07-27T05:27:54.679Z,6.80
2022-07-27T05:28:42.715Z,6.40
2022-07-27T05:29:41.705Z,7.00
2022-07-27T05:30:41.696Z,4.70
2022-07-27T05:31:41.708Z,4.60
2022-07-27T05:32:41.711Z,4.10
2022-07-27T05:33:45.197Z,5.50
2022-07-27T05:34:43.663Z,7.40
2022-07-27T05:35:41.664Z,5.40
2022-07-27T05:36:41.652Z,6.70
2022-07-27T05:37:41.663Z,5.30
2022-07-27T05:38:41.631Z,7.20
2022-07-27T05:39:41.625Z,9.00
2022-07-27T05:40:41.629Z,5.30
2022-07-27T05:41:41.604Z,5.80
2022-07-27T05:42:41.632Z,4.20
2022-07-27T05:43:41.589Z,6.60
2022-07-27T05:44:41.580Z,5.90
2022-07-27T05:45:41.646Z,5.70
2022-07-27T05:46:41.570Z,5.30
2022-07-27T05:47:41.588Z,5.20
2022-07-27T05:48:41.599Z,8.00
2022-07-27T05:49:41.545Z,7.00
2022-07-27T05:50:41.534Z,7.60
2022-07-27T05:51:41.529Z,4.70
2022-07-27T05:52:41.545Z,5.00
2022-07-27T05:53:41.511Z,5.20
2022-07-27T05:54:41.499Z,6.00
2022-07-27T05:55:58.350Z,5.00
2022-07-27T05:56:42.483Z,8.20
2022-07-27T05:57:41.501Z,6.50
2022-07-27T05:58:41.482Z,7.80
2022-07-27T05:59:41.464Z,6.00
2022-07-27T06:00:41.502Z,4.90
2022-07-27T06:01:41.443Z,8.30
2022-07-27T06:02:41.462Z,6.10
2022-07-27T06:03:41.498Z,4.10
2022-07-27T06:04:41.428Z,3.60
2022-07-27T06:05:41.413Z,7.00
2022-07-27T06:06:41.407Z,4.50
2022-07-27T06:07:41.421Z,5.90
2022-07-27T06:08:41.389Z,6.10
2022-07-27T06:09:41.380Z,6.60
2022-07-27T06:10:41.376Z,5.40
2022-07-27T06:11:41.369Z,5.20
2022-07-27T06:12:41.387Z,4.80
2022-07-27T06:13:42.144Z,7.70
2022-07-27T06:14:41.341Z,10.20
2022-07-27T06:15:41.338Z,7.40
2022-07-27T06:16:41.361Z,4.10
2022-07-27T06:17:41.353Z,5.60
2022-07-27T06:18:41.314Z,4.90
2022-07-27T06:19:41.328Z,6.70
2022-07-27T06:20:41.307Z,6.90
2022-07-27T06:21:41.290Z,6.00
2022-07-27T06:22:41.312Z,5.80
2022-07-27T06:23:41.270Z,5.30
2022-07-27T06:24:41.269Z,5.20
2022-07-27T06:25:41.263Z,4.90
2022-07-27T06:26:41.246Z,5.70
2022-07-27T06:27:41.267Z,4.00
2022-07-27T06:28:41.236Z,5.90
2022-07-27T06:29:41.250Z,5.00
2022-07-27T06:30:41.214Z,6.00
2022-07-27T06:31:42.778Z,5.80
2022-07-27T06:32:42.222Z,6.70
2022-07-27T06:33:41.192Z,5.90
2022-07-27T06:34:43.162Z,6.10
2022-07-27T06:35:42.179Z,7.00
2022-07-27T06:36:41.170Z,7.00
2022-07-27T06:37:41.180Z,6.70
2022-07-27T06:38:41.150Z,7.80
2022-07-27T06:39:41.138Z,7.10
2022-07-27T06:40:41.132Z,5.40
2022-07-27T06:41:41.121Z,7.20
2022-07-27T06:42:41.142Z,4.30
2022-07-27T06:43:41.110Z,6.00
2022-07-27T06:44:41.093Z,8.90
2022-07-27T06:45:41.091Z,5.20
2022-07-27T06:46:41.124Z,6.10
2022-07-27T06:47:49.045Z,6.80
2022-07-27T06:48:42.107Z,4.30
2022-07-27T06:49:41.060Z,7.60
2022-07-27T06:50:41.058Z,6.30
2022-07-27T06:51:41.045Z,4.80
2022-07-27T06:52:41.050Z,7.10
2022-07-27T06:53:42.033Z,4.20
2022-07-27T06:54:41.019Z,4.80
2022-07-27T06:55:41.021Z,6.40
2022-07-27T06:56:41.005Z,7.60
2022-07-27T06:57:41.016Z,5.20
2022-07-27T06:58:41.987Z,5.00
2022-07-27T06:59:43.409Z,5.20
2022-07-27T07:00:41.012Z,5.90
2022-07-27T07:01:43.410Z,6.90
2022-07-27T07:02:41.983Z,4.50
2022-07-27T07:03:41.005Z,6.70
2022-07-27T07:04:40.943Z,3.40
2022-07-27T07:05:40.936Z,3.40
2022-07-27T07:06:40.926Z,5.40
2022-07-27T07:07:40.922Z,7.40
2022-07-27T07:08:40.931Z,5.90
2022-07-27T07:09:40.908Z,4.70
2022-07-27T07:10:40.887Z,4.70
2022-07-27T07:11:40.930Z,2.80
2022-07-27T07:12:40.892Z,4.20
2022-07-27T07:13:44.762Z,7.60
2022-07-27T07:14:41.859Z,4.20
2022-07-27T07:15:40.849Z,7.40
2022-07-27T07:16:40.860Z,6.80
2022-07-27T07:17:40.842Z,5.60
2022-07-27T07:18:40.867Z,4.80
2022-07-27T07:19:40.829Z,4.60
2022-07-27T07:20:40.816Z,5.00
2022-07-27T07:21:40.801Z,5.00
2022-07-27T07:22:40.790Z,5.30
2022-07-27T07:23:40.810Z,5.10
2022-07-27T07:24:40.781Z,5.70
2022-07-27T07:25:40.821Z,5.10
2022-07-27T07:26:40.795Z,5.00
2022-07-27T07:27:40.752Z,4.00
2022-07-27T07:28:40.766Z,12.60
2022-07-27T07:29:40.742Z,5.20
2022-07-27T07:30:40.732Z,4.60
2022-07-27T07:31:40.753Z,4.80
2022-07-27T07:32:40.709Z,6.30
2022-07-27T07:33:41.728Z,8.80
2022-07-27T07:34:40.698Z,4.20
2022-07-27T07:36:13.960Z,4.30
2022-07-27T07:36:41.704Z,5.90
2022-07-27T07:37:40.672Z,2.80
2022-07-27T07:38:40.688Z,4.90
2022-07-27T07:39:40.658Z,6.80
2022-07-27T07:40:43.729Z,4.70
2022-07-27T07:41:41.644Z,3.90
2022-07-27T07:42:40.634Z,3.70
2022-07-27T07:43:40.651Z,3.90
2022-07-27T07:44:40.630Z,5.40
2022-07-27T07:45:50.268Z,3.90
2022-07-27T07:46:46.822Z,2.80
2022-07-27T07:47:42.593Z,4.60
2022-07-27T07:48:40.654Z,4.80
2022-07-27T07:49:40.643Z,3.60
2022-07-27T07:50:40.572Z,5.50
2022-07-27T07:51:40.557Z,3.20
2022-07-27T07:52:40.551Z,6.10
2022-07-27T07:53:41.561Z,3.40
2022-07-27T07:54:41.541Z,6.80
2022-07-27T07:55:40.537Z,5.00
2022-07-27T07:56:40.525Z,3.80
2022-07-27T07:57:40.527Z,3.50
2022-07-27T07:58:40.535Z,5.60
2022-07-27T07:59:40.502Z,4.40
2022-07-27T08:00:40.496Z,2.40
2022-07-27T08:01:40.562Z,6.60
2022-07-27T08:02:40.520Z,5.70
2022-07-27T08:03:40.494Z,6.50
2022-07-27T08:04:40.466Z,4.90
2022-07-27T08:05:40.457Z,4.40
2022-07-27T08:06:40.440Z,4.00
2022-07-27T08:07:40.442Z,4.70
2022-07-27T08:08:40.459Z,5.10
2022-07-27T08:09:40.426Z,5.50
2022-07-27T08:10:40.429Z,5.10
2022-07-27T08:11:40.402Z,3.30
2022-07-27T08:12:40.405Z,4.00
2022-07-27T08:13:40.416Z,6.30
2022-07-27T08:14:40.384Z,3.60
2022-07-27T08:15:40.558Z,4.10
2022-07-27T08:16:40.445Z,6.70
2022-07-27T08:17:40.374Z,4.50
2022-07-27T08:18:40.374Z,3.40
2022-07-27T08:19:40.568Z,6.90
2022-07-27T08:20:41.428Z,2.90
2022-07-27T08:21:40.330Z,3.60
2022-07-27T08:22:40.319Z,3.60
2022-07-27T08:23:40.338Z,3.00
2022-07-27T08:24:40.305Z,7.10
2022-07-27T08:25:40.284Z,6.70
2022-07-27T08:26:41.294Z,4.90
2022-07-27T08:27:41.030Z,5.20
2022-07-27T08:28:40.294Z,4.20
2022-07-27T08:29:40.263Z,3.20
2022-07-27T08:30:40.256Z,4.00
2022-07-27T08:31:51.314Z,5.00
2022-07-27T08:32:41.240Z,4.80
2022-07-27T08:33:40.994Z,4.40
2022-07-27T08:34:40.228Z,3.90
2022-07-27T08:35:40.212Z,4.00
2022-07-27T08:36:40.207Z,3.90
2022-07-27T08:37:40.196Z,4.90
2022-07-27T08:38:40.228Z,4.80
2022-07-27T08:40:44.959Z,3.90
2022-07-27T08:41:41.991Z,5.90
2022-07-27T08:42:40.157Z,4.60
2022-07-27T08:43:40.184Z,6.50
2022-07-27T08:44:40.146Z,6.70
2022-07-27T08:45:40.137Z,3.20
2022-07-27T08:46:40.190Z,6.00
2022-07-27T08:47:40.120Z,5.20
2022-07-27T08:48:40.155Z,3.70
2022-07-27T08:49:43.720Z,5.60
2022-07-27T08:50:42.301Z,5.80
2022-07-27T08:51:42.800Z,3.90
2022-07-27T08:52:42.085Z,4.10
2022-07-27T08:53:53.445Z,6.50
2022-07-27T08:54:41.092Z,5.90
2022-07-27T08:55:40.061Z,4.80
2022-07-27T08:56:40.049Z,4.30
2022-07-27T08:57:40.035Z,4.50
2022-07-27T08:58:40.028Z,3.50
2022-07-27T08:59:40.046Z,4.50
2022-07-27T09:00:40.010Z,6.70
2022-07-27T09:01:40.104Z,5.20
2022-07-27T09:02:40.056Z,3.80
2022-07-27T09:03:40.011Z,3.80
2022-07-27T09:04:40.006Z,3.90
2022-07-27T09:05:39.985Z,5.10
2022-07-27T09:06:39.973Z,5.00
2022-07-27T09:07:40.000Z,3.20
2022-07-27T09:08:39.953Z,3.80
2022-07-27T09:09:39.973Z,5.70
2022-07-27T09:10:39.938Z,6.40
2022-07-27T09:11:39.948Z,3.40
2022-07-27T09:12:39.925Z,7.70
2022-07-27T09:13:39.916Z,4.30
2022-07-27T09:14:39.935Z,4.00
2022-07-27T09:16:03.137Z,5.10
2022-07-27T09:17:28.512Z,4.70
2022-07-27T09:17:48.598Z,4.70
2022-07-27T09:18:41.886Z,4.90
2022-07-27T09:19:39.893Z,3.10
2022-07-27T09:20:39.867Z,5.70
2022-07-27T09:21:39.871Z,4.90
2022-07-27T09:22:39.859Z,6.20
2022-07-27T09:23:39.858Z,7.20
2022-07-27T09:24:47.922Z,5.10
2022-07-27T09:26:41.817Z,3.80
2022-07-27T09:27:39.812Z,3.70
2022-07-27T09:28:39.830Z,3.20
2022-07-27T09:29:39.818Z,2.80
2022-07-27T09:30:39.928Z,6.60
2022-07-27T09:31:39.838Z,2.40
2022-07-27T09:32:39.768Z,4.30
2022-07-27T09:33:39.760Z,4.70
2022-07-27T09:34:39.824Z,3.40
2022-07-27T09:35:39.745Z,2.90
2022-07-27T09:36:39.742Z,5.10
2022-07-27T09:37:39.730Z,5.10
2022-07-27T09:38:39.720Z,4.30
2022-07-27T09:39:39.746Z,4.10
2022-07-27T09:40:39.710Z,5.30
2022-07-27T09:41:39.697Z,3.10
2022-07-27T09:43:12.486Z,4.00
2022-07-27T09:44:28.748Z,3.70
2022-07-27T09:44:43.771Z,5.00
2022-07-27T09:45:39.674Z,6.20
2022-07-27T09:46:39.726Z,3.70
2022-07-27T09:47:39.655Z,4.40
2022-07-27T09:48:39.719Z,5.50
2022-07-27T09:49:39.668Z,4.20
2022-07-27T09:50:48.721Z,3.00
2022-07-27T09:52:10.300Z,5.40
2022-07-27T09:52:41.619Z,4.00
2022-07-27T09:53:43.335Z,3.10
2022-07-27T09:54:40.655Z,4.50
2022-07-27T09:55:39.593Z,4.80
2022-07-27T09:56:39.582Z,4.40
2022-07-27T09:57:39.579Z,4.20
2022-07-27T09:58:39.572Z,6.10
2022-07-27T09:59:39.594Z,2.30
2022-07-27T10:00:39.555Z,2.80
2022-07-27T10:01:46.737Z,4.50
2022-07-27T10:02:41.543Z,3.60
2022-07-27T10:03:39.533Z,3.30
2022-07-27T10:04:39.616Z,5.40
2022-07-27T10:05:39.516Z,4.20
2022-07-27T10:07:01.216Z,5.70
2022-07-27T10:07:41.504Z,4.50
2022-07-27T10:08:39.493Z,3.60
2022-07-27T10:09:39.524Z,2.60
2022-07-27T10:10:39.485Z,2.40
2022-07-27T10:11:39.478Z,4.90
2022-07-27T10:12:39.510Z,3.20
2022-07-27T10:13:43.637Z,6.90
2022-07-27T10:14:39.477Z,4.90
2022-07-27T10:15:39.473Z,4.40
2022-07-27T10:16:39.435Z,3.00
2022-07-27T10:17:39.432Z,1.80
2022-07-27T10:18:39.423Z,3.20
2022-07-27T10:19:39.445Z,5.60
2022-07-27T10:20:39.405Z,2.20
2022-07-27T10:21:39.392Z,1.90
2022-07-27T10:22:39.390Z,1.60
2022-07-27T10:23:39.384Z,8.10
2022-07-27T10:24:39.399Z,2.50
2022-07-27T10:25:39.373Z,3.50
2022-07-27T10:26:39.363Z,2.30
2022-07-27T10:27:39.353Z,3.00
2022-07-27T10:28:39.341Z,4.50
2022-07-27T10:29:39.369Z,4.30
2022-07-27T10:30:39.399Z,4.00
2022-07-27T10:31:39.384Z,3.60
2022-07-27T10:32:39.311Z,3.10
2022-07-27T10:33:39.303Z,3.30
2022-07-27T10:34:39.298Z,3.50
2022-07-27T10:35:39.317Z,3.00
2022-07-27T10:36:39.280Z,3.20
2022-07-27T10:37:39.280Z,5.20
2022-07-27T10:38:39.265Z,2.70
2022-07-27T10:39:39.256Z,3.60
2022-07-27T10:40:39.277Z,2.40
2022-07-27T10:41:39.242Z,2.10
2022-07-27T10:42:39.233Z,4.00
2022-07-27T10:43:39.228Z,0.90
2022-07-27T10:44:39.230Z,1.40
2022-07-27T10:46:00.083Z,2.80
2022-07-27T10:46:40.237Z,2.30
2022-07-27T10:47:39.193Z,3.50
2022-07-27T10:48:44.206Z,2.30
2022-07-27T10:49:41.704Z,3.00
2022-07-27T10:50:39.200Z,2.30
2022-07-27T10:51:39.165Z,2.60
2022-07-27T10:52:39.154Z,1.80
2022-07-27T10:54:09.353Z,2.10
2022-07-27T10:54:41.138Z,2.80
2022-07-27T10:55:39.157Z,2.30
2022-07-27T10:56:39.121Z,1.80
2022-07-27T10:57:39.117Z,3.60
2022-07-27T10:58:39.104Z,2.80
2022-07-27T11:00:06.943Z,1.90
2022-07-27T11:00:41.128Z,3.00
2022-07-27T11:01:39.190Z,2.00
2022-07-27T11:02:40.108Z,3.30
2022-07-27T11:03:42.454Z,1.20
2022-07-27T11:04:39.096Z,3.50
2022-07-27T11:06:00.073Z,2.80
2022-07-27T11:07:15.016Z,2.30
2022-07-27T11:07:46.285Z,1.20
2022-07-27T11:08:47.037Z,3.30
2022-07-27T11:10:10.035Z,3.20
2022-07-27T11:10:41.038Z,1.60
2022-07-27T11:11:39.010Z,1.90
2022-07-27T11:12:38.995Z,2.90
2022-07-27T11:13:39.149Z,3.70
2022-07-27T11:14:38.982Z,3.70
2022-07-27T11:15:38.999Z,1.70
2022-07-27T11:16:54.531Z,3.40
2022-07-27T11:17:56.774Z,3.30
2022-07-27T11:18:40.958Z,2.00
2022-07-27T11:19:38.944Z,2.10
2022-07-27T11:20:38.960Z,1.60
2022-07-27T11:21:38.921Z,2.60
2022-07-27T11:23:09.050Z,2.20
2022-07-27T11:23:50.938Z,1.90
2022-07-27T11:24:40.904Z,1.90
2022-07-27T11:25:38.918Z,2.50
2022-07-27T11:26:38.891Z,4.30
2022-07-27T11:27:38.879Z,2.10
2022-07-27T11:28:38.875Z,2.60
2022-07-27T11:29:43.547Z,1.90
2022-07-27T11:30:39.955Z,4.00
2022-07-27T11:31:54.662Z,2.70
2022-07-27T11:32:40.854Z,1.00
2022-07-27T11:33:38.839Z,1.50
2022-07-27T11:34:38.831Z,2.20
2022-07-27T11:35:38.854Z,2.40
2022-07-27T11:36:38.817Z,1.10
2022-07-27T11:37:38.803Z,2.80
2022-07-27T11:38:38.799Z,2.10
2022-07-27T11:41:07.188Z,2.00
2022-07-27T11:42:08.129Z,3.80
2022-07-27T11:42:40.777Z,2.70
2022-07-27T11:43:38.763Z,4.80
2022-07-27T11:44:38.771Z,4.70
2022-07-27T11:45:38.826Z,5.40
2022-07-27T11:46:38.744Z,3.20
2022-07-27T11:47:38.742Z,2.60
2022-07-27T11:49:03.911Z,1.40
2022-07-27T11:49:40.740Z,1.30
2022-07-27T11:50:38.744Z,2.00
2022-07-27T11:51:38.712Z,3.30
2022-07-27T11:52:38.698Z,2.40
2022-07-27T11:53:38.685Z,2.50
2022-07-27T11:54:38.681Z,3.80
2022-07-27T11:55:38.699Z,1.90
2022-07-27T11:56:38.668Z,3.00
2022-07-27T11:57:38.660Z,2.30
2022-07-27T11:58:38.664Z,2.50
2022-07-27T11:59:38.647Z,1.50
2022-07-27T12:00:38.672Z,1.70
2022-07-27T12:01:38.626Z,1.30
2022-07-27T12:02:38.656Z,4.60
2022-07-27T12:03:47.597Z,2.10
2022-07-27T12:04:39.652Z,2.70
2022-07-27T12:05:38.683Z,1.80
2022-07-27T12:06:38.594Z,1.50
2022-07-27T12:07:38.582Z,2.00
2022-07-27T12:08:38.575Z,2.60
2022-07-27T12:09:39.099Z,2.00
2022-07-27T12:10:38.561Z,2.00
2022-07-27T12:11:38.576Z,2.60
2022-07-27T12:12:38.555Z,1.00
2022-07-27T12:13:38.538Z,2.50
2022-07-27T12:14:38.529Z,2.60
2022-07-27T12:15:46.816Z,4.10
2022-07-27T12:16:40.599Z,2.40
2022-07-27T12:17:38.508Z,2.40
2022-07-27T12:18:38.503Z,2.30
2022-07-27T12:19:38.496Z,3.00
2022-07-27T12:20:38.480Z,2.20
2022-07-27T12:21:38.500Z,0.60
2022-07-27T12:22:38.473Z,1.10
2022-07-27T12:23:38.459Z,4.30
2022-07-27T12:24:38.450Z,3.60
2022-07-27T12:25:38.451Z,3.60
2022-07-27T12:26:38.469Z,1.20
2022-07-27T12:27:38.438Z,2.30
2022-07-27T12:28:38.426Z,2.70
2022-07-27T12:29:38.414Z,1.80
2022-07-27T12:30:38.459Z,2.50
2022-07-27T12:31:38.422Z,2.20
2022-07-27T12:32:38.389Z,2.20
2022-07-27T12:33:38.391Z,1.90
2022-07-27T12:34:38.375Z,2.20
2022-07-27T12:35:41.733Z,1.00
2022-07-27T12:36:40.405Z,2.40
2022-07-27T12:37:38.362Z,2.50
2022-07-27T12:38:38.354Z,2.60
2022-07-27T12:39:38.349Z,3.40
2022-07-27T12:40:38.359Z,1.90
2022-07-27T12:41:38.348Z,2.50
2022-07-27T12:42:38.316Z,1.50
2022-07-27T12:43:38.304Z,2.70
2022-07-27T12:44:38.296Z,4.90
2022-07-27T12:45:38.343Z,6.50
2022-07-27T12:46:38.304Z,6.70
2022-07-27T12:47:38.270Z,6.80
2022-07-27T12:48:38.311Z,1.40
2022-07-27T12:49:41.940Z,1.80
2022-07-27T12:50:39.258Z,2.30
2022-07-27T12:51:38.266Z,4.00
2022-07-27T12:52:38.234Z,2.70
2022-07-27T12:53:38.232Z,1.30
2022-07-27T12:54:38.221Z,2.00
2022-07-27T12:55:38.207Z,4.50
2022-07-27T12:56:38.230Z,2.10
2022-07-27T12:57:54.472Z,2.50
2022-07-27T12:58:40.187Z,2.20
2022-07-27T12:59:38.177Z,1.90
2022-07-27T13:00:38.172Z,2.40
2022-07-27T13:01:38.285Z,1.40
2022-07-27T13:02:38.177Z,3.60
2022-07-27T13:03:38.153Z,2.60
2022-07-27T13:04:38.149Z,2.90
2022-07-27T13:05:38.283Z,1.50
2022-07-27T13:06:38.147Z,2.90
2022-07-27T13:07:38.117Z,1.30
2022-07-27T13:08:38.113Z,4.20
2022-07-27T13:10:03.610Z,3.20
2022-07-27T13:10:39.090Z,2.20
2022-07-27T13:11:38.109Z,1.90
2022-07-27T13:12:38.068Z,2.00
2022-07-27T13:13:38.095Z,2.70
2022-07-27T13:14:38.055Z,2.50
2022-07-27T13:15:39.051Z,3.60
2022-07-27T13:16:38.148Z,3.90
2022-07-27T13:17:38.040Z,5.80
2022-07-27T13:18:38.030Z,2.60
2022-07-27T13:19:38.025Z,2.50
2022-07-27T13:20:38.033Z,3.40
2022-07-27T13:21:38.034Z,1.60